sensor_id;sensor_type;location;lat;lon;timestamp;pressure;altitude;pressure_sealevel;temperature;humidity
54994;BME280;40891;47.242;8.648;2024-01-11T00:01:20;97050.41;;;0.46;100.00
54994;BME280;40891;47.242;8.648;2024-01-11T00:03:45;97051.56;;;0.45;100.00
54994;BME280;40891;47.242;8.648;2024-01-11T00:06:10;97048.06;;;0.44;100.00
54994;BME280;40891;47.242;8.648;2024-01-11T00:08:36;97055.06;;;0.45;100.00
54994;BME280;40891;47.242;8.648;2024-01-11T00:11:01;97047.66;;;0.46;100.00
54994;BME280;40891;47.242;8.648;2024-01-11T00:13:26;97055.13;;;0.49;100.00
54994;BME280;40891;47.242;8.648;2024-01-11T00:15:52;97058.28;;;0.51;100.00
54994;BME280;40891;47.242;8.648;2024-01-11T00:18:19;97064.56;;;0.51;100.00
54994;BME280;40891;47.242;8.648;2024-01-11T00:20:44;97064.16;;;0.53;100.00
54994;BME280;40891;47.242;8.648;2024-01-11T00:23:09;97061.44;;;0.53;100.00
54994;BME280;40891;47.242;8.648;2024-01-11T00:25:34;97060.63;;;0.52;100.00
54994;BME280;40891;47.242;8.648;2024-01-11T00:28:00;97057.88;;;0.49;100.00
54994;BME280;40891;47.242;8.648;2024-01-11T00:30:26;97064.06;;;0.46;100.00
54994;BME280;40891;47.242;8.648;2024-01-11T00:32:52;97062.56;;;0.48;100.00
54994;BME280;40891;47.242;8.648;2024-01-11T00:35:17;97059.03;;;0.48;100.00
54994;BME280;40891;47.242;8.648;2024-01-11T00:37:42;97067.19;;;0.44;100.00
54994;BME280;40891;47.242;8.648;2024-01-11T00:40:08;97066.72;;;0.39;100.00
54994;BME280;40891;47.242;8.648;2024-01-11T00:42:33;97061.25;;;0.39;100.00
54994;BME280;40891;47.242;8.648;2024-01-11T00:45:00;97061.63;;;0.37;100.00
54994;BME280;40891;47.242;8.648;2024-01-11T00:47:25;97061.94;;;0.32;100.00
54994;BME280;40891;47.242;8.648;2024-01-11T00:49:50;97060.75;;;0.33;100.00
54994;BME280;40891;47.242;8.648;2024-01-11T00:52:15;97061.22;;;0.35;100.00
54994;BME280;40891;47.242;8.648;2024-01-11T00:54:41;97064.41;;;0.41;100.00
54994;BME280;40891;47.242;8.648;2024-01-11T00:57:06;97062.84;;;0.40;100.00
54994;BME280;40891;47.242;8.648;2024-01-11T00:59:31;97065.06;;;0.31;100.00
54994;BME280;40891;47.242;8.648;2024-01-11T01:01:57;97061.94;;;0.32;100.00
54994;BME280;40891;47.242;8.648;2024-01-11T01:04:22;97065.78;;;0.28;100.00
54994;BME280;40891;47.242;8.648;2024-01-11T01:06:47;97070.03;;;0.25;100.00
54994;BME280;40891;47.242;8.648;2024-01-11T01:09:12;97060.63;;;0.23;100.00
54994;BME280;40891;47.242;8.648;2024-01-11T01:11:38;97066.09;;;0.23;100.00
54994;BME280;40891;47.242;8.648;2024-01-11T01:14:04;97075.44;;;0.22;100.00
54994;BME280;40891;47.242;8.648;2024-01-11T01:16:30;97066.81;;;0.20;100.00
54994;BME280;40891;47.242;8.648;2024-01-11T01:18:55;97066.09;;;0.23;100.00
54994;BME280;40891;47.242;8.648;2024-01-11T01:21:20;97075.44;;;0.22;100.00
54994;BME280;40891;47.242;8.648;2024-01-11T01:23:46;97073.09;;;0.20;100.00
54994;BME280;40891;47.242;8.648;2024-01-11T01:26:11;97078.19;;;0.22;100.00
54994;BME280;40891;47.242;8.648;2024-01-11T01:28:36;97087.97;;;0.23;100.00
54994;BME280;40891;47.242;8.648;2024-01-11T01:31:01;97085.25;;;0.23;100.00
54994;BME280;40891;47.242;8.648;2024-01-11T01:33:27;97093.44;;;0.23;100.00
54994;BME280;40891;47.242;8.648;2024-01-11T01:35:52;97086.34;;;0.18;100.00
54994;BME280;40891;47.242;8.648;2024-01-11T01:38:17;97079.28;;;0.17;100.00
54994;BME280;40891;47.242;8.648;2024-01-11T01:40:43;97085.13;;;0.16;100.00
54994;BME280;40891;47.242;8.648;2024-01-11T01:43:09;97093.34;;;0.16;100.00
54994;BME280;40891;47.242;8.648;2024-01-11T01:45:35;97103.09;;;0.17;100.00
54994;BME280;40891;47.242;8.648;2024-01-11T01:48:01;97101.13;;;0.14;100.00
54994;BME280;40891;47.242;8.648;2024-01-11T01:50:27;97105.31;;;0.08;100.00
54994;BME280;40891;47.242;8.648;2024-01-11T01:52:52;97101.44;;;0.09;100.00
54994;BME280;40891;47.242;8.648;2024-01-11T01:55:19;97106.72;;;-0.02;100.00
54994;BME280;40891;47.242;8.648;2024-01-11T01:57:45;97114.13;;;-0.03;100.00
54994;BME280;40891;47.242;8.648;2024-01-11T02:00:12;97106.88;;;0.09;100.00
54994;BME280;40891;47.242;8.648;2024-01-11T02:02:39;97110.34;;;0.06;100.00
54994;BME280;40891;47.242;8.648;2024-01-11T02:05:07;97113.38;;;0.00;100.00
54994;BME280;40891;47.242;8.648;2024-01-11T02:07:33;97112.97;;;-0.02;100.00
54994;BME280;40891;47.242;8.648;2024-01-11T02:09:58;97114.13;;;-0.03;100.00
54994;BME280;40891;47.242;8.648;2024-01-11T02:12:25;97120.31;;;-0.06;100.00
54994;BME280;40891;47.242;8.648;2024-01-11T02:14:53;97118.81;;;-0.03;100.00
54994;BME280;40891;47.242;8.648;2024-01-11T02:17:18;97120.25;;;-0.09;100.00
54994;BME280;40891;47.242;8.648;2024-01-11T02:19:44;97120.03;;;-0.01;100.00
54994;BME280;40891;47.242;8.648;2024-01-11T02:22:15;97131.25;;;-0.06;100.00
54994;BME280;40891;47.242;8.648;2024-01-11T02:24:43;97120.31;;;-0.06;100.00
54994;BME280;40891;47.242;8.648;2024-01-11T02:27:08;97115.16;;;-0.11;100.00
54994;BME280;40891;47.242;8.648;2024-01-11T02:29:35;97116.00;;;-0.07;100.00
54994;BME280;40891;47.242;8.648;2024-01-11T02:32:02;97116.00;;;-0.07;100.00
54994;BME280;40891;47.242;8.648;2024-01-11T02:34:28;97121.84;;;-0.08;100.00
54994;BME280;40891;47.242;8.648;2024-01-11T02:36:54;97116.75;;;-0.10;100.00
54994;BME280;40891;47.242;8.648;2024-01-11T02:39:20;97119.50;;;-0.10;100.00
54994;BME280;40891;47.242;8.648;2024-01-11T02:41:48;97113.91;;;-0.17;100.00
54994;BME280;40891;47.242;8.648;2024-01-11T02:44:15;97119.41;;;-0.13;100.00
54994;BME280;40891;47.242;8.648;2024-01-11T02:46:40;97118.19;;;-0.16;100.00
54994;BME280;40891;47.242;8.648;2024-01-11T02:49:05;97116.75;;;-0.10;100.00
54994;BME280;40891;47.242;8.648;2024-01-11T02:51:31;97108.88;;;-0.15;100.00
54994;BME280;40891;47.242;8.648;2024-01-11T02:53:56;97114.75;;;-0.13;100.00
54994;BME280;40891;47.242;8.648;2024-01-11T02:56:21;97114.78;;;-0.09;100.00
54994;BME280;40891;47.242;8.648;2024-01-11T02:58:46;97121.00;;;-0.12;100.00
54994;BME280;40891;47.242;8.648;2024-01-11T03:01:12;97110.78;;;-0.15;100.00
54994;BME280;40891;47.242;8.648;2024-01-11T03:03:37;97115.09;;;-0.14;100.00
54994;BME280;40891;47.242;8.648;2024-01-11T03:06:03;97117.06;;;-0.15;100.00
54994;BME280;40891;47.242;8.648;2024-01-11T03:08:28;97120.22;;;-0.13;100.00
54994;BME280;40891;47.242;8.648;2024-01-11T03:10:54;97114.31;;;-0.15;100.00
54994;BME280;40891;47.242;8.648;2024-01-11T03:13:19;97107.69;;;-0.14;100.00
54994;BME280;40891;47.242;8.648;2024-01-11T03:15:44;97104.97;;;-0.14;100.00
54994;BME280;40891;47.242;8.648;2024-01-11T03:18:10;97101.81;;;-0.16;100.00
54994;BME280;40891;47.242;8.648;2024-01-11T03:20:35;97103.41;;;-0.15;100.00
54994;BME280;40891;47.242;8.648;2024-01-11T03:23:00;97097.84;;;-0.18;100.00
54994;BME280;40891;47.242;8.648;2024-01-11T03:25:26;97098.28;;;-0.16;100.00
54994;BME280;40891;47.242;8.648;2024-01-11T03:27:51;97096.75;;;-0.14;100.00
54994;BME280;40891;47.242;8.648;2024-01-11T03:30:16;97092.81;;;-0.16;100.00
54994;BME280;40891;47.242;8.648;2024-01-11T03:32:42;97088.56;;;-0.14;100.00
54994;BME280;40891;47.242;8.648;2024-01-11T03:35:08;97091.72;;;-0.12;100.00
54994;BME280;40891;47.242;8.648;2024-01-11T03:37:33;97090.50;;;-0.14;100.00
54994;BME280;40891;47.242;8.648;2024-01-11T03:39:59;97091.25;;;-0.17;100.00
54994;BME280;40891;47.242;8.648;2024-01-11T03:42:25;97087.72;;;-0.18;100.00
54994;BME280;40891;47.242;8.648;2024-01-11T03:44:50;97096.34;;;-0.16;100.00
54994;BME280;40891;47.242;8.648;2024-01-11T03:47:15;97089.38;;;-0.13;100.00
54994;BME280;40891;47.242;8.648;2024-01-11T03:49:41;97091.28;;;-0.14;100.00
54994;BME280;40891;47.242;8.648;2024-01-11T03:52:06;97100.66;;;-0.15;100.00
54994;BME280;40891;47.242;8.648;2024-01-11T03:54:31;97091.28;;;-0.14;100.00
54994;BME280;40891;47.242;8.648;2024-01-11T03:56:56;97093.63;;;-0.16;100.00
54994;BME280;40891;47.242;8.648;2024-01-11T03:59:22;97088.22;;;-0.12;100.00
54994;BME280;40891;47.242;8.648;2024-01-11T04:01:47;97084.28;;;-0.15;100.00
54994;BME280;40891;47.242;8.648;2024-01-11T04:04:12;97094.03;;;-0.14;100.00
54994;BME280;40891;47.242;8.648;2024-01-11T04:06:38;97087.41;;;-0.13;100.00
54994;BME280;40891;47.242;8.648;2024-01-11T04:09:03;97089.75;;;-0.15;100.00
54994;BME280;40891;47.242;8.648;2024-01-11T04:11:29;97086.59;;;-0.17;100.00
54994;BME280;40891;47.242;8.648;2024-01-11T04:13:55;97092.06;;;-0.17;100.00
54994;BME280;40891;47.242;8.648;2024-01-11T04:16:21;97095.94;;;-0.18;100.00
54994;BME280;40891;47.242;8.648;2024-01-11T04:18:46;97087.34;;;-0.16;100.00
54994;BME280;40891;47.242;8.648;2024-01-11T04:21:22;97084.16;;;-0.22;100.00
54994;BME280;40891;47.242;8.648;2024-01-11T04:23:48;97085.28;;;-0.23;100.00
54994;BME280;40891;47.242;8.648;2024-01-11T04:26:13;97085.59;;;-0.28;100.00
54994;BME280;40891;47.242;8.648;2024-01-11T04:28:39;97085.59;;;-0.28;100.00
54994;BME280;40891;47.242;8.648;2024-01-11T04:31:04;97078.56;;;-0.29;100.00
54994;BME280;40891;47.242;8.648;2024-01-11T04:33:29;97082.53;;;-0.26;100.00
54994;BME280;40891;47.242;8.648;2024-01-11T04:35:54;97078.69;;;-0.22;100.00
54994;BME280;40891;47.242;8.648;2024-01-11T04:38:20;97082.56;;;-0.23;100.00
54994;BME280;40891;47.242;8.648;2024-01-11T04:40:45;97082.56;;;-0.23;100.00
54994;BME280;40891;47.242;8.648;2024-01-11T04:43:10;97091.19;;;-0.21;100.00
54994;BME280;40891;47.242;8.648;2024-01-11T04:45:36;97084.16;;;-0.22;100.00
54994;BME280;40891;47.242;8.648;2024-01-11T04:48:01;97090.75;;;-0.23;100.00
54994;BME280;40891;47.242;8.648;2024-01-11T04:50:27;97088.03;;;-0.23;100.00
54994;BME280;40891;47.242;8.648;2024-01-11T04:52:52;97085.59;;;-0.28;100.00
54994;BME280;40891;47.242;8.648;2024-01-11T04:55:17;97088.75;;;-0.26;100.00
54994;BME280;40891;47.242;8.648;2024-01-11T04:57:42;97093.06;;;-0.25;100.00
54994;BME280;40891;47.242;8.648;2024-01-11T05:00:08;97086.47;;;-0.24;100.00
54994;BME280;40891;47.242;8.648;2024-01-11T05:02:33;97076.25;;;-0.27;100.00
54994;BME280;40891;47.242;8.648;2024-01-11T05:04:59;97083.28;;;-0.26;100.00
54994;BME280;40891;47.242;8.648;2024-01-11T05:07:24;97078.19;;;-0.27;100.00
54994;BME280;40891;47.242;8.648;2024-01-11T05:09:49;97077.00;;;-0.30;100.00
54994;BME280;40891;47.242;8.648;2024-01-11T05:12:14;97087.91;;;-0.30;100.00
54994;BME280;40891;47.242;8.648;2024-01-11T05:14:40;97075.78;;;-0.32;100.00
54994;BME280;40891;47.242;8.648;2024-01-11T05:17:05;97088.28;;;-0.31;100.00
54994;BME280;40891;47.242;8.648;2024-01-11T05:19:30;97082.03;;;-0.32;100.00
54994;BME280;40891;47.242;8.648;2024-01-11T05:21:55;97088.75;;;-0.26;100.00
54994;BME280;40891;47.242;8.648;2024-01-11T05:24:22;97079.22;;;-0.35;100.00
54994;BME280;40891;47.242;8.648;2024-01-11T05:26:47;97074.25;;;-0.30;100.00
54994;BME280;40891;47.242;8.648;2024-01-11T05:29:12;97078.56;;;-0.29;100.00
54994;BME280;40891;47.242;8.648;2024-01-11T05:31:37;97075.41;;;-0.31;100.00
54994;BME280;40891;47.242;8.648;2024-01-11T05:34:03;97082.34;;;-0.37;100.00
54994;BME280;40891;47.242;8.648;2024-01-11T05:36:28;97075.34;;;-0.34;100.00
54994;BME280;40891;47.242;8.648;2024-01-11T05:38:53;97078.47;;;-0.36;100.00
54994;BME280;40891;47.242;8.648;2024-01-11T05:41:19;97073.00;;;-0.36;100.00
54994;BME280;40891;47.242;8.648;2024-01-11T05:43:44;97080.41;;;-0.36;100.00
54994;BME280;40891;47.242;8.648;2024-01-11T05:46:09;97075.72;;;-0.36;100.00
54994;BME280;40891;47.242;8.648;2024-01-11T05:48:34;97081.50;;;-0.41;100.00
54994;BME280;40891;47.242;8.648;2024-01-11T05:51:00;97079.19;;;-0.39;100.00
54994;BME280;40891;47.242;8.648;2024-01-11T05:53:25;97073.72;;;-0.39;100.00
54994;BME280;40891;47.242;8.648;2024-01-11T05:55:52;97074.13;;;-0.37;100.00
54994;BME280;40891;47.242;8.648;2024-01-11T05:58:18;97081.22;;;-0.32;100.00
54994;BME280;40891;47.242;8.648;2024-01-11T06:00:43;97082.44;;;-0.30;100.00
54994;BME280;40891;47.242;8.648;2024-01-11T06:03:11;97079.31;;;-0.32;100.00
54994;BME280;40891;47.242;8.648;2024-01-11T06:05:36;97086.66;;;-0.36;100.00
54994;BME280;40891;47.242;8.648;2024-01-11T06:08:02;97079.19;;;-0.39;100.00
54994;BME280;40891;47.242;8.648;2024-01-11T06:10:27;97075.28;;;-0.38;100.00
54994;BME280;40891;47.242;8.648;2024-01-11T06:12:52;97079.91;;;-0.42;100.00
54994;BME280;40891;47.242;8.648;2024-01-11T06:15:18;97079.19;;;-0.39;100.00
54994;BME280;40891;47.242;8.648;2024-01-11T06:17:43;97078.81;;;-0.37;100.00
54994;BME280;40891;47.242;8.648;2024-01-11T06:20:09;97076.38;;;-0.42;100.00
54994;BME280;40891;47.242;8.648;2024-01-11T06:22:35;97084.94;;;-0.44;100.00
54994;BME280;40891;47.242;8.648;2024-01-11T06:25:00;97083.34;;;-0.45;100.00
54994;BME280;40891;47.242;8.648;2024-01-11T06:27:26;97088.38;;;-0.47;100.00
54994;BME280;40891;47.242;8.648;2024-01-11T06:29:51;97091.91;;;-0.46;100.00
54994;BME280;40891;47.242;8.648;2024-01-11T06:32:16;97096.59;;;-0.47;100.00
54994;BME280;40891;47.242;8.648;2024-01-11T06:34:42;97096.59;;;-0.47;100.00
54994;BME280;40891;47.242;8.648;2024-01-11T06:37:10;97091.91;;;-0.46;100.00
54994;BME280;40891;47.242;8.648;2024-01-11T06:39:36;97094.28;;;-0.45;100.00
54994;BME280;40891;47.242;8.648;2024-01-11T06:42:01;97097.38;;;-0.46;100.00
54994;BME280;40891;47.242;8.648;2024-01-11T06:44:26;97105.94;;;-0.48;100.00
54994;BME280;40891;47.242;8.648;2024-01-11T06:46:52;97104.78;;;-0.47;100.00
54994;BME280;40891;47.242;8.648;2024-01-11T06:49:17;97113.84;;;-0.43;100.00
54994;BME280;40891;47.242;8.648;2024-01-11T06:51:42;97117.34;;;-0.42;100.00
54994;BME280;40891;47.242;8.648;2024-01-11T06:54:07;97104.13;;;-0.40;100.00
54994;BME280;40891;47.242;8.648;2024-01-11T06:56:33;97111.66;;;-0.34;100.00
54994;BME280;40891;47.242;8.648;2024-01-11T06:58:58;97114.00;;;-0.32;100.00
54994;BME280;40891;47.242;8.648;2024-01-11T07:01:23;97111.78;;;-0.27;100.00
54994;BME280;40891;47.242;8.648;2024-01-11T07:03:49;97120.69;;;-0.30;100.00
54994;BME280;40891;47.242;8.648;2024-01-11T07:06:15;97116.81;;;-0.29;100.00
54994;BME280;40891;47.242;8.648;2024-01-11T07:08:40;97117.97;;;-0.30;100.00
54994;BME280;40891;47.242;8.648;2024-01-11T07:11:05;97129.31;;;-0.28;100.00
54994;BME280;40891;47.242;8.648;2024-01-11T07:13:31;97127.75;;;-0.29;100.00
54994;BME280;40891;47.242;8.648;2024-01-11T07:15:57;97130.53;;;-0.25;100.00
54994;BME280;40891;47.242;8.648;2024-01-11T07:18:23;97143.38;;;-0.26;100.00
54994;BME280;40891;47.242;8.648;2024-01-11T07:20:49;97141.53;;;-0.22;100.00
54994;BME280;40891;47.242;8.648;2024-01-11T07:23:15;97142.38;;;-0.18;100.00
54994;BME280;40891;47.242;8.648;2024-01-11T07:25:40;97140.06;;;-0.16;100.00
54994;BME280;40891;47.242;8.648;2024-01-11T07:28:07;97147.75;;;-0.21;100.00
54994;BME280;40891;47.242;8.648;2024-01-11T07:30:32;97141.53;;;-0.22;100.00
54994;BME280;40891;47.242;8.648;2024-01-11T07:32:58;97146.69;;;-0.17;100.00
54994;BME280;40891;47.242;8.648;2024-01-11T07:35:23;97146.63;;;-0.20;100.00
54994;BME280;40891;47.242;8.648;2024-01-11T07:37:48;97144.25;;;-0.22;100.00
54994;BME280;40891;47.242;8.648;2024-01-11T07:40:15;97151.28;;;-0.21;100.00
54994;BME280;40891;47.242;8.648;2024-01-11T07:42:42;97150.28;;;-0.13;100.00
54994;BME280;40891;47.242;8.648;2024-01-11T07:45:07;97150.31;;;-0.09;100.00
54994;BME280;40891;47.242;8.648;2024-01-11T07:47:35;97151.91;;;-0.08;100.00
54994;BME280;40891;47.242;8.648;2024-01-11T07:50:01;97158.59;;;-0.06;100.00
54994;BME280;40891;47.242;8.648;2024-01-11T07:52:26;97162.47;;;-0.07;100.00
54994;BME280;40891;47.242;8.648;2024-01-11T07:54:52;97160.72;;;0.05;100.00
54994;BME280;40891;47.242;8.648;2024-01-11T07:57:19;97160.59;;;-0.03;100.00
54994;BME280;40891;47.242;8.648;2024-01-11T07:59:44;97164.47;;;-0.04;100.00
54994;BME280;40891;47.242;8.648;2024-01-11T08:02:09;97163.75;;;-0.01;100.00
54994;BME280;40891;47.242;8.648;2024-01-11T08:04:34;97170.34;;;-0.02;100.00
54994;BME280;40891;47.242;8.648;2024-01-11T08:07:00;97168.03;;;0.00;100.00
54994;BME280;40891;47.242;8.648;2024-01-11T08:09:28;97172.75;;;0.00;100.00
54994;BME280;40891;47.242;8.648;2024-01-11T08:11:54;97169.75;;;0.09;100.00
54994;BME280;40891;47.242;8.648;2024-01-11T08:14:20;97162.69;;;0.08;100.00
54994;BME280;40891;47.242;8.648;2024-01-11T08:16:45;97170.59;;;0.13;100.00
54994;BME280;40891;47.242;8.648;2024-01-11T08:19:11;97174.84;;;0.10;100.00
54994;BME280;40891;47.242;8.648;2024-01-11T08:21:38;97185.84;;;0.14;100.00
54994;BME280;40891;47.242;8.648;2024-01-11T08:24:04;97184.34;;;0.16;100.00
54994;BME280;40891;47.242;8.648;2024-01-11T08:26:29;97185.09;;;0.17;100.00
54994;BME280;40891;47.242;8.648;2024-01-11T08:28:56;97182.31;;;0.13;100.00
54994;BME280;40891;47.242;8.648;2024-01-11T08:31:21;97195.56;;;0.11;100.00
54994;BME280;40891;47.242;8.648;2024-01-11T08:33:46;97195.38;;;0.00;100.00
54994;BME280;40891;47.242;8.648;2024-01-11T08:36:11;97193.00;;;-0.01;100.00
54994;BME280;40891;47.242;8.648;2024-01-11T08:38:37;97189.44;;;-0.05;100.00
54994;BME280;40891;47.242;8.648;2024-01-11T08:41:02;97192.09;;;-0.09;100.00
54994;BME280;40891;47.242;8.648;2024-01-11T08:43:28;97193.59;;;-0.11;100.00
54994;BME280;40891;47.242;8.648;2024-01-11T08:45:54;97194.28;;;-0.18;100.00
54994;BME280;40891;47.242;8.648;2024-01-11T08:48:19;97193.06;;;-0.20;100.00
54994;BME280;40891;47.242;8.648;2024-01-11T08:50:44;97198.81;;;-0.25;100.00
54994;BME280;40891;47.242;8.648;2024-01-11T08:53:10;97195.78;;;-0.20;100.00
54994;BME280;40891;47.242;8.648;2024-01-11T08:55:35;97199.19;;;-0.04;100.00
54994;BME280;40891;47.242;8.648;2024-01-11T08:58:00;97191.16;;;-0.16;100.00
54994;BME280;40891;47.242;8.648;2024-01-11T09:00:26;97196.63;;;-0.16;100.00
54994;BME280;40891;47.242;8.648;2024-01-11T09:02:52;97191.84;;;-0.23;100.00
54994;BME280;40891;47.242;8.648;2024-01-11T09:05:17;97192.25;;;-0.21;100.00
54994;BME280;40891;47.242;8.648;2024-01-11T09:07:42;97194.28;;;-0.18;100.00
54994;BME280;40891;47.242;8.648;2024-01-11T09:10:08;97195.50;;;-0.15;100.00
54994;BME280;40891;47.242;8.648;2024-01-11T09:12:34;97188.16;;;-0.11;100.00
54994;BME280;40891;47.242;8.648;2024-01-11T09:14:59;97193.31;;;-0.06;100.00
54994;BME280;40891;47.242;8.648;2024-01-11T09:17:25;97186.34;;;-0.04;100.00
54994;BME280;40891;47.242;8.648;2024-01-11T09:19:51;97189.97;;;0.04;100.00
54994;BME280;40891;47.242;8.648;2024-01-11T09:22:16;97187.78;;;0.13;100.00
54994;BME280;40891;47.242;8.648;2024-01-11T09:24:42;97199.53;;;0.14;100.00
54994;BME280;40891;47.242;8.648;2024-01-11T09:27:08;97212.09;;;0.18;100.00
54994;BME280;40891;47.242;8.648;2024-01-11T09:29:33;97212.00;;;0.15;100.00
54994;BME280;40891;47.242;8.648;2024-01-11T09:31:59;97208.97;;;0.20;100.00
54994;BME280;40891;47.242;8.648;2024-01-11T09:34:25;97210.38;;;0.10;100.00
54994;BME280;40891;47.242;8.648;2024-01-11T09:36:50;97219.63;;;0.02;100.00
54994;BME280;40891;47.242;8.648;2024-01-11T09:39:15;97219.91;;;-0.03;100.00
54994;BME280;40891;47.242;8.648;2024-01-11T09:41:43;97222.69;;;0.00;100.00
54994;BME280;40891;47.242;8.648;2024-01-11T09:44:15;97221.13;;;-0.01;100.00
54994;BME280;40891;47.242;8.648;2024-01-11T09:46:40;97230.06;;;-0.04;100.00
54994;BME280;40891;47.242;8.648;2024-01-11T09:49:06;97228.16;;;0.00;100.00
54994;BME280;40891;47.242;8.648;2024-01-11T09:51:36;97229.88;;;0.09;100.00
54994;BME280;40891;47.242;8.648;2024-01-11T09:54:03;97231.44;;;0.10;100.00
54994;BME280;40891;47.242;8.648;2024-01-11T09:56:28;97225.13;;;0.06;100.00
54994;BME280;40891;47.242;8.648;2024-01-11T09:58:54;97230.38;;;0.14;100.00
54994;BME280;40891;47.242;8.648;2024-01-11T10:01:19;97225.63;;;0.11;100.00
54994;BME280;40891;47.242;8.648;2024-01-11T10:03:45;97222.09;;;0.11;100.00
54994;BME280;40891;47.242;8.648;2024-01-11T10:06:13;97217.25;;;0.00;100.00
54994;BME280;40891;47.242;8.648;2024-01-11T10:08:39;97212.69;;;0.08;100.00
54994;BME280;40891;47.242;8.648;2024-01-11T10:11:04;97217.44;;;0.11;100.00
54994;BME280;40891;47.242;8.648;2024-01-11T10:13:30;97217.75;;;0.06;100.00
54994;BME280;40891;47.242;8.648;2024-01-11T10:16:08;97210.22;;;-0.01;100.00
54994;BME280;40891;47.242;8.648;2024-01-11T10:18:35;97213.06;;;0.07;100.00
54994;BME280;40891;47.242;8.648;2024-01-11T10:21:00;97204.91;;;0.10;100.00
54994;BME280;40891;47.242;8.648;2024-01-11T10:23:26;97203.81;;;0.15;100.00
54994;BME280;40891;47.242;8.648;2024-01-11T10:25:56;97201.50;;;0.17;100.00
54994;BME280;40891;47.242;8.648;2024-01-11T10:28:23;97203.94;;;0.22;100.00
54994;BME280;40891;47.242;8.648;2024-01-11T10:30:50;97202.41;;;0.24;100.00
54994;BME280;40891;47.242;8.648;2024-01-11T10:33:19;97206.66;;;0.22;100.00
54994;BME280;40891;47.242;8.648;2024-01-11T10:35:45;97208.41;;;0.33;100.00
54994;BME280;40891;47.242;8.648;2024-01-11T10:38:11;97208.06;;;0.35;100.00
54994;BME280;40891;47.242;8.648;2024-01-11T10:40:36;97200.66;;;0.35;100.00
54994;BME280;40891;47.242;8.648;2024-01-11T10:43:02;97201.41;;;0.32;100.00
54994;BME280;40891;47.242;8.648;2024-01-11T10:45:31;97205.75;;;0.37;100.00
54994;BME280;40891;47.242;8.648;2024-01-11T10:48:07;97206.97;;;0.39;100.00
54994;BME280;40891;47.242;8.648;2024-01-11T10:50:37;97205.56;;;0.49;100.00
54994;BME280;40891;47.242;8.648;2024-01-11T10:53:24;97203.97;;;0.48;100.00
54994;BME280;40891;47.242;8.648;2024-01-11T10:55:52;97211.75;;;0.46;100.00
54994;BME280;40891;47.242;8.648;2024-01-11T10:58:19;97205.69;;;0.56;100.00
54994;BME280;40891;47.242;8.648;2024-01-11T11:00:46;97202.75;;;0.45;100.00
54994;BME280;40891;47.242;8.648;2024-01-11T11:03:13;97205.16;;;0.47;100.00
54994;BME280;40891;47.242;8.648;2024-01-11T11:05:42;97204.72;;;0.45;100.00
54994;BME280;40891;47.242;8.648;2024-01-11T11:08:09;97200.91;;;0.49;100.00
54994;BME280;40891;47.242;8.648;2024-01-11T11:10:37;97203.63;;;0.49;100.00
54994;BME280;40891;47.242;8.648;2024-01-11T11:13:05;97201.41;;;0.32;100.00
54994;BME280;40891;47.242;8.648;2024-01-11T11:15:31;97206.97;;;0.39;100.00
54994;BME280;40891;47.242;8.648;2024-01-11T11:17:57;97208.66;;;0.47;100.00
54994;BME280;40891;47.242;8.648;2024-01-11T11:20:22;97216.19;;;0.54;100.00
54994;BME280;40891;47.242;8.648;2024-01-11T11:23:02;97209.66;;;0.62;100.00
54994;BME280;40891;47.242;8.648;2024-01-11T11:25:30;97198.59;;;0.78;100.00
54994;BME280;40891;47.242;8.648;2024-01-11T11:27:55;97197.72;;;1.00;100.00
54994;BME280;40891;47.242;8.648;2024-01-11T11:30:21;97186.00;;;0.99;100.00
54994;BME280;40891;47.242;8.648;2024-01-11T11:32:46;97184.19;;;1.10;100.00
54994;BME280;40891;47.242;8.648;2024-01-11T11:35:12;97185.72;;;1.11;100.00
54994;BME280;40891;47.242;8.648;2024-01-11T11:37:38;97180.63;;;1.10;100.00
54994;BME280;40891;47.242;8.648;2024-01-11T11:40:08;97186.13;;;1.10;100.00
54994;BME280;40891;47.242;8.648;2024-01-11T11:42:35;97174.03;;;1.11;100.00
54994;BME280;40891;47.242;8.648;2024-01-11T11:45:01;97169.75;;;1.13;100.00
54994;BME280;40891;47.242;8.648;2024-01-11T11:47:34;97168.16;;;1.12;100.00
54994;BME280;40891;47.242;8.648;2024-01-11T11:52:32;97171.72;;;1.16;100.00
54994;BME280;40891;47.242;8.648;2024-01-11T11:54:59;97166.41;;;1.30;100.00
54994;BME280;40891;47.242;8.648;2024-01-11T11:57:26;97151.16;;;1.29;100.00
54994;BME280;40891;47.242;8.648;2024-01-11T11:59:55;97155.47;;;1.30;100.00
54994;BME280;40891;47.242;8.648;2024-01-11T12:02:21;97155.94;;;1.36;100.00
54994;BME280;40891;47.242;8.648;2024-01-11T12:04:47;97156.16;;;1.54;100.00
54994;BME280;40891;47.242;8.648;2024-01-11T12:07:14;97148.69;;;1.54;100.00
54994;BME280;40891;47.242;8.648;2024-01-11T12:09:40;97133.78;;;1.52;100.00
54994;BME280;40891;47.242;8.648;2024-01-11T12:12:05;97135.03;;;1.58;100.00
54994;BME280;40891;47.242;8.648;2024-01-11T12:14:31;97138.44;;;1.48;100.00
54994;BME280;40891;47.242;8.648;2024-01-11T12:16:59;97138.03;;;1.46;100.00
54994;BME280;40891;47.242;8.648;2024-01-11T12:19:25;97129.41;;;1.44;100.00
54994;BME280;40891;47.242;8.648;2024-01-11T12:21:51;97132.16;;;1.44;100.00
54994;BME280;40891;47.242;8.648;2024-01-11T12:24:16;97140.00;;;1.45;100.00
54994;BME280;40891;47.242;8.648;2024-01-11T12:26:43;97139.66;;;1.50;100.00
54994;BME280;40891;47.242;8.648;2024-01-11T12:29:08;97135.50;;;1.63;100.00
54994;BME280;40891;47.242;8.648;2024-01-11T12:31:34;97134.72;;;1.63;100.00
54994;BME280;40891;47.242;8.648;2024-01-11T12:34:03;97131.59;;;1.64;100.00
54994;BME280;40891;47.242;8.648;2024-01-11T12:36:29;97137.44;;;1.63;100.00
54994;BME280;40891;47.242;8.648;2024-01-11T12:38:54;97137.44;;;1.63;100.00
54994;BME280;40891;47.242;8.648;2024-01-11T12:41:23;97133.44;;;1.53;100.00
54994;BME280;40891;47.242;8.648;2024-01-11T12:43:48;97133.88;;;1.25;100.00
54994;BME280;40891;47.242;8.648;2024-01-11T12:46:14;97130.66;;;1.16;100.00
54994;BME280;40891;47.242;8.648;2024-01-11T12:48:39;97138.66;;;0.99;100.00
54994;BME280;40891;47.242;8.648;2024-01-11T12:51:05;97141.22;;;0.85;100.00